Nearby METAR Reports

 

KBAX - Bad Axe, Michigan, USA
Distance from station: ESE 22mi, 35km
Updated: Tue, 22-Jan-2019 2:36pm EST
Clear
Clear
 Wind from S
Wind: S 14 mph , 22 km/h, Gust: 23 mph , 37 km/h
Temperature: 25°F , -4°C
Wind Chill: 13°F , -11°C
Dew Point: 12°F , -11°C
Humidity: 59%
Barometer: 30.14 inHg , 1020.7 hPa
Clouds: Clear
Visibility: 10 miles , 16 km
2019/01/22 19:36 KBAX 221936Z AUTO 17012G20KT 10SM CLR M04/M11 A3014 RMK AO2 T10371107
KFNT - Flint, Michigan, USA
Distance from station: SSW 68mi, 109km
Updated: Tue, 22-Jan-2019 1:53pm EST
Clear
Clear
 Wind from S
Wind: S 20 mph , 31 km/h, Gust: 26 mph , 43 km/h
Temperature: 25°F , -4°C
Wind Chill: 11°F , -12°C
Dew Point: 7°F , -14°C
Humidity: 46%
Barometer: 30.16 inHg , 1021.3 hPa
Clouds: Clear
Visibility: 10 miles , 16 km
2019/01/22 18:53 KFNT 221853Z 17017G23KT 10SM CLR M04/M14 A3016 RMK AO2 SLP230 T10391139
KMBS - Saginaw, Michigan, USA
Distance from station: SW 44mi, 70km
Updated: Tue, 22-Jan-2019 1:53pm EST
Mostly cloudy
Mostly cloudy
 Wind from S
Wind: S 15 mph , 24 km/h
Temperature: 25°F , -4°C
Wind Chill: 13°F , -11°C
Dew Point: 7°F , -14°C
Humidity: 46%
Barometer: 30.16 inHg , 1021.3 hPa
Clouds: Mostly cloudy
Visibility: 10 miles , 16 km
Cloud details: Few Clouds 5500 ft
Mostly cloudy 7000 ft
2019/01/22 18:53 KMBS 221853Z 19013KT 10SM FEW055 BKN070 M04/M14 A3016 RMK AO2 SLP227 T10391139
 
KDTW - Detroit/Wayne, Michigan, USA
Distance from station: SSE 117mi, 188km
Updated: Tue, 22-Jan-2019 1:53pm EST
Overcast
Overcast
 Wind from SE
Wind: SE 14 mph , 22 km/h, Gust: 20 mph , 31 km/h
Temperature: 21°F , -6°C
Wind Chill: 8°F , -13°C
Dew Point: 5°F , -15°C
Humidity: 49%
Barometer: 30.23 inHg , 1023.7 hPa
Clouds: Overcast
Visibility: 10 miles , 16 km
Cloud details: Overcast 22000 ft
2019/01/22 18:53 KDTW 221853Z 14012G17KT 10SM OVC220 M06/M15 A3023 RMK AO2 PRESFR SLP251 T10561150 $
KP58 - Port Hope, Michigan, USA
Distance from station: ENE 30mi, 48km
Updated: Tue, 22-Jan-2019 1:51pm EST

 Wind from SSE
Wind: SSE 15 mph , 24 km/h, Gust: 25 mph , 41 km/h
Temperature: 23°F , -5°C
Wind Chill: 10°F , -12°C
Dew Point: 14°F , -10°C
Humidity: 68%
Barometer: 30.18 inHg , 1022 hPa
2019/01/22 18:51 KP58 221851Z AUTO 16013G22KT M05/M10 A3018 RMK AO1 PK WND 16026/1836 SLP239 T10501100
KCFS - Caro/Tuscola, Michigan, USA
Distance from station: S 31mi, 50km
Updated: Tue, 22-Jan-2019 2:35pm EST
Mostly cloudy
Mostly cloudy
 Wind from SSE
Wind: SSE 16 mph , 26 km/h, Gust: 21 mph , 33 km/h
Temperature: 27°F , -3°C
Wind Chill: 15°F , -9°C
Dew Point: 9°F , -13°C
Humidity: 46%
Barometer: 30.14 inHg , 1020.7 hPa
Clouds: Mostly cloudy
Visibility: 10 miles , 16 km
Cloud details: Mostly cloudy 5000 ft
2019/01/22 19:35 KCFS 221935Z AUTO 15014G18KT 10SM BKN050 M03/M13 A3014 RMK AO2 T10281127
 
KPHN - Port Huron, Michigan, USA
Distance from station: SSE 81mi, 131km
Updated: Tue, 22-Jan-2019 2:35pm EST
Clear
Clear
 Wind from SSE
Wind: SSE 15 mph , 24 km/h, Gust: 23 mph , 37 km/h
Temperature: 25°F , -4°C
Wind Chill: 13°F , -11°C
Dew Point: 12°F , -11°C
Humidity: 59%
Barometer: 30.23 inHg , 1023.7 hPa
Clouds: Clear
Visibility: 10 miles , 16 km
2019/01/22 19:35 KPHN 221935Z AUTO 15013G20KT 10SM CLR M04/M11 A3023 RMK AO2
KPTK - Pontiac, Michigan, USA
Distance from station: S 86mi, 138km
Updated: Tue, 22-Jan-2019 1:53pm EST
Mostly cloudy
Mostly cloudy
 Wind from SSE
Wind: SSE 14 mph , 22 km/h
Temperature: 25°F , -4°C
Wind Chill: 13°F , -11°C
Dew Point: 12°F , -11°C
Humidity: 59%
Barometer: 30.18 inHg , 1022 hPa
Clouds: Mostly cloudy
Visibility: 10 miles , 16 km
Cloud details: Few Clouds 5500 ft
Mostly cloudy 20000 ft
2019/01/22 18:53 KPTK 221853Z 16012KT 10SM FEW055 BKN200 M04/M11 A3018 RMK SLPNO
KMTC - Selfridge Angb, Michigan, USA
Distance from station: SSE 94mi, 151km
Updated: Tue, 22-Jan-2019 1:56pm EST
Mostly cloudy
Mostly cloudy
 Wind from SSE
Wind: SSE 15 mph , 24 km/h
Temperature: 23°F , -5°C
Wind Chill: 10°F , -12°C
Dew Point: 12°F , -11°C
Humidity: 63%
Barometer: 30.25 inHg , 1024.4 hPa
Clouds: Mostly cloudy
Visibility: 10 miles , 16 km
Cloud details: Mostly cloudy 20000 ft
2019/01/22 18:56 KMTC 221856Z 16013KT 10SM BKN200 M05/M11 A3025 RMK AO2A PRESFR SLP264 WND DATA ESTMD T10541110 $